createdAt,value
2023-03-22T00:01:25.541Z,7.50
2023-03-22T00:03:53.619Z,7.20
2023-03-22T00:06:21.897Z,7.10
2023-03-22T00:08:52.265Z,7.70
2023-03-22T00:11:24.533Z,7.50
2023-03-22T00:13:53.901Z,7.20
2023-03-22T00:16:22.515Z,7.00
2023-03-22T00:18:51.545Z,7.50
2023-03-22T00:21:21.463Z,7.70
2023-03-22T00:23:49.951Z,7.10
2023-03-22T00:26:18.222Z,6.70
2023-03-22T00:28:46.807Z,7.10
2023-03-22T00:31:15.836Z,7.40
2023-03-22T00:33:44.289Z,6.70
2023-03-22T00:36:13.078Z,6.60
2023-03-22T00:38:43.861Z,6.80
2023-03-22T00:41:19.373Z,7.10
2023-03-22T00:43:49.000Z,6.90
2023-03-22T00:46:21.597Z,6.70
2023-03-22T00:48:49.725Z,7.10
2023-03-22T00:51:18.293Z,7.10
2023-03-22T00:53:49.979Z,6.50
2023-03-22T00:56:19.049Z,6.40
2023-03-22T00:59:07.413Z,7.10
2023-03-22T01:01:35.829Z,7.10
2023-03-22T01:04:05.630Z,6.90
2023-03-22T01:06:35.968Z,6.40
2023-03-22T01:09:05.218Z,6.70
2023-03-22T01:11:33.300Z,6.30
2023-03-22T01:14:02.380Z,7.30
2023-03-22T01:16:30.474Z,6.90
2023-03-22T01:18:58.932Z,6.90
2023-03-22T01:21:27.413Z,6.60
2023-03-22T01:23:55.995Z,6.80
2023-03-22T01:26:24.167Z,6.90
2023-03-22T01:28:52.340Z,7.20
2023-03-22T01:31:20.645Z,6.80
2023-03-22T01:33:48.895Z,6.80
2023-03-22T01:36:17.276Z,6.90
2023-03-22T01:38:45.555Z,7.00
2023-03-22T01:41:16.210Z,7.20
2023-03-22T01:43:45.186Z,6.80
2023-03-22T01:46:13.291Z,6.60
2023-03-22T01:48:47.359Z,6.70
2023-03-22T01:54:33.076Z,6.80
2023-03-22T01:59:36.993Z,6.20
2023-03-22T02:02:22.149Z,7.00
2023-03-22T02:04:58.350Z,6.80
2023-03-22T02:07:29.067Z,7.00
2023-03-22T02:10:00.032Z,7.30
2023-03-22T02:13:10.284Z,6.70
2023-03-22T02:16:19.126Z,6.90
2023-03-22T02:19:36.730Z,7.00
2023-03-22T02:22:39.620Z,6.20
2023-03-22T02:25:27.756Z,6.50
2023-03-22T02:28:50.222Z,7.20
2023-03-22T02:32:08.968Z,6.80
2023-03-22T02:35:24.411Z,6.90
2023-03-22T02:38:09.929Z,6.40
2023-03-22T02:41:10.978Z,6.20
2023-03-22T02:44:13.966Z,6.90
2023-03-22T02:46:58.296Z,6.90
2023-03-22T02:49:50.354Z,7.40
2023-03-22T02:52:31.993Z,6.70
2023-03-22T02:55:29.008Z,6.60
2023-03-22T02:58:14.688Z,6.90
2023-03-22T03:00:46.579Z,7.00
2023-03-22T03:03:19.163Z,7.50
2023-03-22T03:05:56.096Z,6.50
2023-03-22T03:08:31.893Z,7.00
2023-03-22T03:11:01.528Z,6.50
2023-03-22T03:13:30.439Z,6.40
2023-03-22T03:16:01.567Z,7.20
2023-03-22T03:18:29.808Z,7.20
2023-03-22T03:21:35.829Z,6.50
2023-03-22T03:24:23.266Z,6.60
2023-03-22T03:27:03.619Z,6.90
2023-03-22T03:30:03.232Z,6.90
2023-03-22T03:32:52.720Z,7.00
2023-03-22T03:35:28.057Z,6.50
2023-03-22T03:38:10.153Z,6.80
2023-03-22T03:40:46.818Z,6.70
2023-03-22T03:43:19.665Z,6.80
2023-03-22T03:45:49.363Z,7.00
2023-03-22T03:48:29.878Z,7.20
2023-03-22T03:51:01.987Z,7.00
2023-03-22T03:53:31.908Z,6.80
2023-03-22T03:56:00.449Z,6.70
2023-03-22T03:58:33.316Z,6.60
2023-03-22T04:01:01.709Z,7.50
2023-03-22T04:03:55.589Z,7.10
2023-03-22T04:06:45.771Z,7.30
2023-03-22T04:09:18.255Z,7.10
2023-03-22T04:11:49.393Z,6.80
2023-03-22T04:14:17.675Z,7.30
2023-03-22T04:16:48.934Z,7.20
2023-03-22T04:19:20.981Z,7.30
2023-03-22T04:21:49.093Z,7.50
2023-03-22T04:24:17.545Z,6.70
2023-03-22T04:26:46.258Z,7.70
2023-03-22T04:29:25.044Z,7.40
2023-03-22T04:32:00.502Z,7.70
2023-03-22T04:34:51.047Z,7.60
2023-03-22T04:37:22.836Z,6.60
2023-03-22T04:39:59.075Z,7.30
2023-03-22T04:42:27.192Z,7.60
2023-03-22T04:45:08.332Z,7.60
2023-03-22T04:47:37.150Z,7.40
2023-03-22T04:50:09.344Z,7.80
2023-03-22T04:52:44.052Z,7.20
2023-03-22T04:55:12.348Z,7.30
2023-03-22T04:57:40.907Z,7.20
2023-03-22T05:00:10.224Z,7.20
2023-03-22T05:02:41.505Z,7.40
2023-03-22T05:05:15.768Z,7.50
2023-03-22T05:07:45.180Z,7.80
2023-03-22T05:10:13.877Z,7.00
2023-03-22T05:12:42.451Z,7.20
2023-03-22T05:15:24.234Z,7.60
2023-03-22T05:17:53.128Z,7.70
2023-03-22T05:20:21.621Z,7.70
2023-03-22T05:22:57.629Z,7.60
2023-03-22T05:25:29.267Z,7.90
2023-03-22T05:28:02.111Z,7.20
2023-03-22T05:30:52.141Z,7.40
2023-03-22T05:33:29.905Z,7.30
2023-03-22T05:35:58.639Z,6.80
2023-03-22T05:38:28.732Z,7.60
2023-03-22T05:40:58.820Z,7.30
2023-03-22T05:43:27.511Z,7.20
2023-03-22T05:45:55.788Z,7.10
2023-03-22T05:48:50.412Z,6.80
2023-03-22T05:51:19.298Z,7.10
2023-03-22T05:53:51.854Z,7.20
2023-03-22T05:56:24.633Z,6.60
2023-03-22T05:58:58.336Z,7.40
2023-03-22T06:01:26.824Z,7.30
2023-03-22T06:04:15.791Z,7.00
2023-03-22T06:07:10.274Z,6.90
2023-03-22T06:09:47.664Z,6.10
2023-03-22T06:12:22.729Z,6.80
2023-03-22T06:14:53.535Z,7.10
2023-03-22T06:17:48.217Z,7.20
2023-03-22T06:20:19.890Z,7.10
2023-03-22T06:22:53.186Z,6.90
2023-03-22T06:25:21.470Z,6.30
2023-03-22T06:27:51.065Z,6.80
2023-03-22T06:30:20.162Z,7.00
2023-03-22T06:33:08.604Z,6.80
2023-03-22T06:35:39.444Z,6.90
2023-03-22T06:38:07.857Z,6.60
2023-03-22T06:40:37.931Z,7.00
2023-03-22T06:43:07.402Z,6.80
2023-03-22T06:45:36.959Z,6.50
2023-03-22T06:48:06.205Z,7.40
2023-03-22T06:51:03.508Z,6.70
2023-03-22T06:53:36.695Z,6.50
2023-03-22T06:56:06.306Z,6.60
2023-03-22T06:58:43.401Z,6.50
2023-03-22T07:01:11.784Z,6.80
2023-03-22T07:03:39.946Z,6.00
2023-03-22T07:06:13.897Z,6.00
2023-03-22T07:08:44.377Z,6.30
2023-03-22T07:11:15.011Z,6.60
2023-03-22T07:13:45.312Z,6.40
2023-03-22T07:16:20.010Z,6.60
2023-03-22T07:18:54.389Z,6.50
2023-03-22T07:21:22.577Z,6.10
2023-03-22T07:23:55.341Z,6.80
2023-03-22T07:26:26.828Z,6.10
2023-03-22T07:28:57.684Z,6.40
2023-03-22T07:31:29.589Z,6.60
2023-03-22T07:34:07.189Z,6.00
2023-03-22T07:36:57.200Z,6.20
2023-03-22T07:39:25.786Z,6.50
2023-03-22T07:41:53.932Z,6.60
2023-03-22T07:44:26.514Z,6.50
2023-03-22T07:47:39.844Z,6.20
2023-03-22T07:50:28.991Z,6.20
2023-03-22T07:52:58.326Z,5.90
2023-03-22T07:55:27.092Z,6.20
2023-03-22T07:57:56.570Z,6.00
2023-03-22T08:00:25.294Z,5.70
2023-03-22T08:03:03.633Z,5.70
2023-03-22T08:05:43.161Z,5.70
2023-03-22T08:08:13.882Z,6.10
2023-03-22T08:10:42.283Z,5.80
2023-03-22T08:13:10.745Z,6.00
2023-03-22T08:15:39.557Z,6.00
2023-03-22T08:18:08.943Z,5.70
2023-03-22T08:20:42.109Z,6.40
2023-03-22T08:23:16.394Z,6.40
2023-03-22T08:25:44.620Z,5.90
2023-03-22T08:28:15.976Z,5.80
2023-03-22T08:30:48.170Z,6.20
2023-03-22T08:33:17.026Z,5.90
2023-03-22T08:35:46.609Z,5.50
2023-03-22T08:38:15.015Z,6.10
2023-03-22T08:40:48.122Z,6.20
2023-03-22T08:43:19.659Z,6.10
2023-03-22T08:45:47.845Z,6.20
2023-03-22T08:48:17.732Z,6.30
2023-03-22T08:51:09.370Z,6.20
2023-03-22T08:53:50.446Z,6.10
2023-03-22T08:56:44.940Z,6.10
2023-03-22T08:59:31.952Z,6.10
2023-03-22T09:02:20.220Z,5.80
2023-03-22T09:04:48.685Z,6.00
2023-03-22T09:07:18.931Z,6.20
2023-03-22T09:09:51.487Z,5.70
2023-03-22T09:12:20.688Z,6.00
2023-03-22T09:14:50.288Z,5.60
2023-03-22T09:17:22.069Z,5.90
2023-03-22T09:20:02.748Z,6.10
2023-03-22T09:22:38.798Z,5.90
2023-03-22T09:25:08.202Z,5.70
2023-03-22T09:27:36.380Z,6.40
2023-03-22T09:30:05.721Z,6.20
2023-03-22T09:32:34.759Z,6.10
2023-03-22T09:35:04.065Z,6.10
2023-03-22T09:40:08.986Z,6.00
2023-03-22T09:42:46.255Z,5.60
2023-03-22T09:45:21.802Z,6.10
2023-03-22T09:47:55.982Z,5.40
2023-03-22T09:50:31.302Z,5.80
2023-03-22T09:53:01.198Z,5.90
2023-03-22T09:55:50.595Z,6.10
2023-03-22T09:58:38.534Z,6.20
2023-03-22T10:01:22.947Z,6.20
2023-03-22T10:04:44.247Z,5.90
2023-03-22T10:08:01.512Z,6.30
2023-03-22T10:10:31.265Z,5.90
2023-03-22T10:13:28.677Z,6.10
2023-03-22T10:16:05.989Z,6.00
2023-03-22T10:18:45.700Z,5.80
2023-03-22T10:21:17.961Z,6.30
2023-03-22T10:24:30.205Z,5.70
2023-03-22T10:26:58.929Z,6.60
2023-03-22T10:29:40.054Z,6.20
2023-03-22T10:32:56.468Z,6.20
2023-03-22T10:35:26.239Z,6.00
2023-03-22T10:37:59.949Z,6.10
2023-03-22T10:40:37.057Z,6.00
2023-03-22T10:43:30.349Z,6.20
2023-03-22T10:46:04.907Z,6.30
2023-03-22T10:48:40.857Z,6.20
2023-03-22T10:51:22.615Z,6.00
2023-03-22T10:53:56.056Z,6.30
2023-03-22T10:56:25.614Z,6.10
2023-03-22T10:58:56.498Z,6.00
2023-03-22T11:01:37.435Z,5.90
2023-03-22T11:04:12.247Z,5.80
2023-03-22T11:06:56.039Z,5.80
2023-03-22T11:09:25.090Z,6.30
2023-03-22T11:12:00.345Z,5.70
2023-03-22T11:14:42.386Z,6.10
2023-03-22T11:17:18.880Z,5.60
2023-03-22T11:19:58.070Z,5.90
2023-03-22T11:22:38.026Z,6.10
2023-03-22T11:25:22.893Z,5.40
2023-03-22T11:28:06.483Z,5.60
2023-03-22T11:30:36.793Z,5.70
2023-03-22T11:33:22.115Z,5.70
2023-03-22T11:36:16.503Z,5.70
2023-03-22T11:38:47.268Z,5.60
2023-03-22T11:41:36.054Z,5.60
2023-03-22T11:44:19.133Z,5.90
2023-03-22T11:47:01.846Z,5.80
2023-03-22T11:49:46.206Z,5.90
2023-03-22T11:52:26.403Z,5.90
2023-03-22T11:54:58.639Z,6.00
2023-03-22T11:57:32.262Z,5.90
2023-03-22T12:00:11.876Z,5.50
2023-03-22T12:03:09.639Z,5.70
2023-03-22T12:05:42.890Z,5.50
2023-03-22T12:08:45.118Z,5.40
2023-03-22T12:11:25.516Z,5.90
2023-03-22T12:14:01.845Z,5.50
2023-03-22T12:16:46.861Z,5.60
2023-03-22T12:22:00.138Z,5.70
2023-03-22T12:24:32.525Z,5.50
2023-03-22T12:27:24.823Z,5.30
2023-03-22T12:30:22.986Z,6.30
2023-03-22T12:33:33.060Z,5.60
2023-03-22T12:36:07.184Z,5.40
2023-03-22T12:38:49.167Z,5.50
2023-03-22T12:41:40.779Z,5.60
2023-03-22T12:44:18.679Z,5.10
2023-03-22T12:46:59.427Z,5.70
2023-03-22T12:50:08.073Z,5.20
2023-03-22T12:52:46.122Z,5.40
2023-03-22T12:55:33.932Z,5.30
2023-03-22T12:58:08.361Z,5.60
2023-03-22T13:00:52.002Z,5.40
2023-03-22T13:03:37.376Z,5.60
2023-03-22T13:06:44.235Z,5.40
2023-03-22T13:09:27.805Z,5.10
2023-03-22T13:12:18.670Z,5.40
2023-03-22T13:14:53.135Z,5.10
2023-03-22T13:17:25.284Z,5.70
2023-03-22T13:20:06.973Z,5.70
2023-03-22T13:22:42.183Z,5.50
2023-03-22T13:25:12.853Z,5.00
2023-03-22T13:28:21.353Z,5.20
2023-03-22T13:30:59.140Z,5.30
2023-03-22T13:33:34.877Z,5.30
2023-03-22T13:36:25.476Z,5.10
2023-03-22T13:39:03.306Z,4.90
2023-03-22T13:41:34.706Z,5.10
2023-03-22T13:44:26.455Z,4.90
2023-03-22T13:47:02.569Z,5.00
2023-03-22T13:49:31.513Z,5.20
2023-03-22T13:52:02.417Z,4.60
2023-03-22T13:54:42.667Z,4.80
2023-03-22T13:57:39.535Z,4.80
2023-03-22T14:00:48.288Z,4.60
2023-03-22T14:03:35.417Z,4.70
2023-03-22T14:06:29.004Z,4.80
2023-03-22T14:09:20.149Z,4.60
2023-03-22T14:12:22.787Z,5.10
2023-03-22T14:14:58.518Z,4.30
2023-03-22T14:17:38.704Z,4.50
2023-03-22T14:20:14.451Z,4.80
